createdAt,value
2017-07-03T00:02:03.049Z,57.0
2017-07-03T00:07:03.372Z,57.1
2017-07-03T00:12:03.174Z,57.1
2017-07-03T00:17:10.862Z,57.1
2017-07-03T00:22:03.729Z,57.1
2017-07-03T00:27:03.375Z,57.2
2017-07-03T00:32:03.493Z,57.3
2017-07-03T00:37:03.772Z,57.2
2017-07-03T00:42:03.318Z,57.2
2017-07-03T00:47:03.499Z,57.3
2017-07-03T00:52:03.668Z,57.2
2017-07-03T00:57:03.343Z,57.2
2017-07-03T01:02:03.949Z,57.1
2017-07-03T01:07:03.669Z,57.2
2017-07-03T01:12:03.496Z,57.2
2017-07-03T01:17:03.375Z,57.0
2017-07-03T01:22:03.884Z,57.1
2017-07-03T01:27:03.647Z,57.0
2017-07-03T01:32:03.389Z,56.9
2017-07-03T01:37:03.317Z,56.9
2017-07-03T01:42:03.138Z,56.9
2017-07-03T01:47:04.020Z,56.9
2017-07-03T01:52:03.440Z,57.0
2017-07-03T01:57:03.085Z,57.0
2017-07-03T02:02:03.690Z,57.1
2017-07-03T02:07:03.220Z,57.1
2017-07-03T02:12:03.909Z,57.0
2017-07-03T02:17:03.780Z,57.0
2017-07-03T02:22:03.358Z,57.0
2017-07-03T02:27:03.933Z,57.2
2017-07-03T02:32:04.019Z,57.3
2017-07-03T02:37:03.477Z,57.4
2017-07-03T02:42:03.733Z,57.4
2017-07-03T02:47:10.921Z,57.5
2017-07-03T02:52:03.433Z,57.4
2017-07-03T02:57:03.899Z,57.4
2017-07-03T03:07:03.173Z,57.5
2017-07-03T03:12:03.610Z,57.5
2017-07-03T03:17:22.529Z,57.7
2017-07-03T03:22:03.345Z,57.6
2017-07-03T03:27:03.141Z,57.6
2017-07-03T03:32:25.632Z,57.4
2017-07-03T03:37:03.832Z,57.4
2017-07-03T03:42:03.295Z,57.5
2017-07-03T03:47:28.583Z,57.3
2017-07-03T03:52:03.149Z,57.5
2017-07-03T03:57:03.503Z,57.3
2017-07-03T04:02:26.639Z,57.2
2017-07-03T04:07:03.525Z,57.1
2017-07-03T04:12:03.930Z,57.1
2017-07-03T04:17:26.573Z,57.0
2017-07-03T04:22:03.853Z,57.0
2017-07-03T04:27:03.205Z,56.9
2017-07-03T04:32:28.048Z,56.9
2017-07-03T04:37:03.997Z,57.0
2017-07-03T04:42:03.547Z,57.0
2017-07-03T04:47:24.390Z,57.0
2017-07-03T04:52:03.684Z,56.7
2017-07-03T04:57:03.076Z,56.7
2017-07-03T05:02:23.653Z,56.4
2017-07-03T05:07:03.694Z,56.5
2017-07-03T05:12:03.333Z,56.5
2017-07-03T05:17:28.811Z,56.7
2017-07-03T05:22:03.746Z,56.7
2017-07-03T05:27:03.139Z,56.6
2017-07-03T05:32:23.816Z,56.0
2017-07-03T05:37:03.274Z,56.0
2017-07-03T05:42:03.578Z,55.6
2017-07-03T05:47:28.610Z,55.5
2017-07-03T05:52:03.684Z,55.4
2017-07-03T05:57:03.039Z,55.3
2017-07-03T06:02:23.580Z,55.2
2017-07-03T06:07:03.694Z,54.6
2017-07-03T06:12:03.299Z,54.7
2017-07-03T06:17:23.765Z,54.6
2017-07-03T06:22:03.401Z,54.9
2017-07-03T06:27:04.046Z,55.3
2017-07-03T06:32:27.526Z,55.3
2017-07-03T06:37:03.510Z,55.5
2017-07-03T06:42:03.792Z,55.9
2017-07-03T06:47:27.534Z,56.3
2017-07-03T06:52:03.844Z,55.4
2017-07-03T06:57:03.294Z,54.5
2017-07-03T07:02:23.751Z,54.2
2017-07-03T07:07:03.105Z,53.9
2017-07-03T07:12:03.657Z,53.8
2017-07-03T07:17:28.858Z,53.5
2017-07-03T07:22:03.511Z,53.6
2017-07-03T07:27:03.790Z,53.8
2017-07-03T07:32:27.880Z,54.0
2017-07-03T07:37:03.191Z,54.0
2017-07-03T07:42:03.561Z,54.3
2017-07-03T07:47:28.760Z,54.3
2017-07-03T07:52:03.091Z,53.6
2017-07-03T07:57:03.452Z,56.0
2017-07-03T08:02:27.483Z,54.3
2017-07-03T08:07:03.858Z,54.0
2017-07-03T08:12:03.422Z,54.0
2017-07-03T08:17:28.488Z,54.1
2017-07-03T08:22:03.206Z,53.7
2017-07-03T08:27:03.607Z,53.7
2017-07-03T08:32:20.522Z,53.3
2017-07-03T08:37:03.795Z,53.0
2017-07-03T08:42:03.132Z,53.0
2017-07-03T08:47:24.100Z,52.9
2017-07-03T08:52:03.533Z,52.9
2017-07-03T08:57:03.821Z,53.5
2017-07-03T09:02:25.770Z,53.5
2017-07-03T09:07:03.632Z,54.6
2017-07-03T09:12:03.229Z,55.1
2017-07-03T09:17:33.836Z,55.0
2017-07-03T09:22:03.287Z,54.7
2017-07-03T09:27:03.724Z,54.5
2017-07-03T09:32:22.429Z,54.4
2017-07-03T09:37:03.158Z,55.0
2017-07-03T09:42:03.657Z,55.0
2017-07-03T09:47:19.581Z,55.2
2017-07-03T09:52:03.405Z,55.0
2017-07-03T09:57:03.769Z,54.3
2017-07-03T10:02:22.993Z,54.1
2017-07-03T10:07:03.727Z,54.2
2017-07-03T10:12:03.705Z,54.1
2017-07-03T10:17:29.331Z,54.4
2017-07-03T10:22:03.778Z,55.0
2017-07-03T10:27:03.233Z,54.4
2017-07-03T10:32:27.854Z,54.3
2017-07-03T10:37:03.191Z,54.3
2017-07-03T10:42:03.625Z,53.3
2017-07-03T10:47:25.294Z,53.5
2017-07-03T10:52:03.103Z,53.4
2017-07-03T10:57:03.675Z,53.1
2017-07-03T11:07:03.901Z,53.0
2017-07-03T11:12:03.483Z,53.7
2017-07-03T11:17:29.614Z,54.0
2017-07-03T11:22:03.967Z,54.0
2017-07-03T11:27:03.747Z,53.7
2017-07-03T11:32:23.524Z,53.8
2017-07-03T11:37:03.273Z,54.5
2017-07-03T11:42:03.695Z,54.5
2017-07-03T11:47:22.474Z,54.1
2017-07-03T11:52:03.786Z,54.1
2017-07-03T11:57:03.034Z,53.4
2017-07-03T12:07:03.344Z,54.2
2017-07-03T12:12:03.969Z,52.8
2017-07-03T12:17:24.141Z,53.8
2017-07-03T12:22:03.537Z,53.8
2017-07-03T12:27:03.877Z,53.5
2017-07-03T12:32:23.723Z,53.7
2017-07-03T12:37:03.746Z,53.7
2017-07-03T12:42:03.169Z,53.0
2017-07-03T12:47:28.584Z,53.7
2017-07-03T12:52:03.137Z,53.7
2017-07-03T12:57:03.358Z,53.3
2017-07-03T13:02:24.160Z,53.0
2017-07-03T13:07:03.359Z,53.3
2017-07-03T13:12:03.811Z,53.3
2017-07-03T13:17:23.882Z,53.1
2017-07-03T13:22:03.384Z,54.0
2017-07-03T13:27:03.728Z,54.0
2017-07-03T13:32:24.205Z,54.2
2017-07-03T13:37:03.787Z,54.1
2017-07-03T13:42:03.187Z,54.0
2017-07-03T13:47:30.877Z,52.5
2017-07-03T13:52:03.036Z,52.4
2017-07-03T13:57:03.450Z,53.4
2017-07-03T14:02:28.012Z,52.8
2017-07-03T14:07:03.344Z,52.6
2017-07-03T14:12:03.801Z,52.5
2017-07-03T14:17:26.793Z,52.5
2017-07-03T14:22:03.949Z,52.8
2017-07-03T14:27:03.855Z,52.9
2017-07-03T14:32:26.277Z,53.5
2017-07-03T14:37:03.355Z,52.3
2017-07-03T14:42:03.656Z,52.3
2017-07-03T14:47:27.934Z,52.0
2017-07-03T14:52:03.193Z,50.3
2017-07-03T14:57:03.570Z,49.8
2017-07-03T15:02:27.719Z,48.4
2017-07-03T15:07:03.552Z,48.4
2017-07-03T15:12:03.974Z,47.9
2017-07-03T15:17:25.381Z,51.4
2017-07-03T15:22:03.563Z,51.4
2017-07-03T15:27:03.857Z,44.0
2017-07-03T15:32:24.458Z,39.7
2017-07-03T15:37:03.750Z,35.7
2017-07-03T15:42:03.661Z,35.8
2017-07-03T15:47:22.779Z,35.4
2017-07-03T15:52:03.005Z,35.0
2017-07-03T15:57:03.767Z,35.2
2017-07-03T16:02:21.193Z,34.7
2017-07-03T16:07:03.779Z,34.8
2017-07-03T16:12:03.303Z,34.8
2017-07-03T16:17:20.297Z,35.6
2017-07-03T16:22:03.826Z,34.4
2017-07-03T16:27:03.125Z,34.0
2017-07-03T16:32:20.357Z,34.3
2017-07-03T16:37:03.147Z,34.8
2017-07-03T16:42:03.482Z,37.3
2017-07-03T16:47:24.149Z,41.9
2017-07-03T16:52:03.733Z,49.1
2017-07-03T16:57:03.091Z,49.2
2017-07-03T17:02:20.145Z,48.2
2017-07-03T17:07:03.704Z,39.3
2017-07-03T17:12:03.327Z,39.1
2017-07-03T17:17:17.930Z,36.1
2017-07-03T17:22:03.585Z,35.3
2017-07-03T17:27:03.829Z,35.5
2017-07-03T17:32:16.231Z,35.6
2017-07-03T17:37:03.735Z,35.8
2017-07-03T17:42:03.141Z,35.7
2017-07-03T17:47:15.601Z,36.6
2017-07-03T17:52:03.313Z,36.7
2017-07-03T17:57:03.641Z,36.7
2017-07-03T18:02:15.072Z,41.0
2017-07-03T18:07:03.927Z,41.7
2017-07-03T18:12:03.388Z,41.8
2017-07-03T18:17:21.802Z,46.5
2017-07-03T18:22:03.787Z,47.6
2017-07-03T18:27:03.145Z,47.6
2017-07-03T18:32:24.577Z,49.1
2017-07-03T18:37:03.932Z,49.1
2017-07-03T18:42:03.308Z,50.4
2017-07-03T18:47:22.292Z,50.4
2017-07-03T18:52:03.628Z,50.8
2017-07-03T18:57:03.898Z,50.9
2017-07-03T19:02:21.560Z,51.1
2017-07-03T19:07:03.287Z,51.4
2017-07-03T19:12:03.742Z,51.3
2017-07-03T19:17:21.850Z,51.6
2017-07-03T19:22:03.785Z,51.6
2017-07-03T19:27:03.232Z,51.7
2017-07-03T19:32:21.999Z,51.6
2017-07-03T19:37:03.909Z,51.8
2017-07-03T19:42:03.550Z,52.1
2017-07-03T19:47:26.470Z,52.1
2017-07-03T19:52:03.123Z,52.2
2017-07-03T19:57:03.358Z,52.3
2017-07-03T20:02:19.904Z,52.2
2017-07-03T20:07:03.344Z,52.3
2017-07-03T20:12:03.603Z,52.3
2017-07-03T20:17:09.515Z,52.4
2017-07-03T20:22:03.671Z,52.5
2017-07-03T20:27:04.009Z,52.5
2017-07-03T20:32:06.853Z,52.5
2017-07-03T20:37:03.729Z,52.4
2017-07-03T20:42:03.322Z,52.5
2017-07-03T20:47:04.300Z,52.4
2017-07-03T20:52:03.390Z,52.4
2017-07-03T20:57:03.630Z,52.5
2017-07-03T21:02:04.095Z,52.5
2017-07-03T21:07:03.259Z,52.4
2017-07-03T21:12:03.684Z,52.3
2017-07-03T21:17:04.047Z,52.3
2017-07-03T21:22:03.452Z,52.2
2017-07-03T21:27:03.698Z,52.2
2017-07-03T21:32:04.022Z,52.3
2017-07-03T21:37:03.415Z,52.3
2017-07-03T21:42:03.518Z,52.3
2017-07-03T21:47:03.848Z,52.3
2017-07-03T21:52:03.208Z,52.4
2017-07-03T21:57:03.395Z,52.4
2017-07-03T22:02:03.789Z,52.3
2017-07-03T22:07:03.555Z,52.4
2017-07-03T22:12:03.698Z,52.3
2017-07-03T22:22:03.742Z,52.1
2017-07-03T22:27:03.883Z,52.1
2017-07-03T22:32:03.382Z,52.2
2017-07-03T22:37:03.972Z,52.1
2017-07-03T22:42:03.521Z,52.1
2017-07-03T22:47:03.229Z,52.1
2017-07-03T22:52:03.586Z,52.0
2017-07-03T22:57:03.050Z,52.0
2017-07-03T23:02:03.569Z,52.7
2017-07-03T23:07:03.163Z,52.0
2017-07-03T23:12:03.815Z,52.0
2017-07-03T23:17:03.645Z,52.1
2017-07-03T23:22:03.986Z,52.0
2017-07-03T23:27:03.687Z,52.0
2017-07-03T23:32:03.360Z,52.0
2017-07-03T23:37:03.235Z,52.0
2017-07-03T23:42:03.945Z,52.0
2017-07-03T23:47:03.797Z,52.0
2017-07-03T23:52:03.404Z,51.9
2017-07-03T23:57:03.094Z,51.9
